Akiak, AK

7:30 PM AKDT on October 24, 2014 (GMT -0800)
Kwethluk AP, Kwethluk, AK | Change Station
CLOSE
Current Station
Airport
Location: Kwethluk AP, Kwethluk, AK,
Elevation: 26 ft
Nearby Weather Stations

Elev 26 ft 60.79 °N, 161.44 °W | Updated 34 minutes ago

Clear
Clear
31 °F
Feels Like 21 °F
N
13
Wind Variable Wind from South

Today
High -- | Low -- °F
--% Chance of Precip.
Yesterday
High -- | Low -- °F
Precip. -- in
9:50 AM 7:06 PM
New Moon, 2% visible
Pressure 29.98 in
Visibility 10.0 miles
Clouds Clear
Windchill 21 °F
Dew Point 28 °F
Humidity 89%
Rainfall 0.00 in
Snow Depth Not available.
UV 0 out of 12
Pollen Not available.
Air Quality Not available.
Flu Activity Local Activity
METAR PFKW 250256Z AUTO 17011KT 10SM CLR M01/M02 A2998 RMK AO2 SLP151 T10061022 56005 FZRANO

More Conditions Fewer Conditions

Pressure 29.98 in
Visibility 10.0 miles
Clouds Clear
Windchill 21 °F
Dew Point 28 °F
Humidity 89%
Rainfall 0.00 in
Snow Depth Not available.
UV 0 out of 12
Pollen Not available.
Air Quality Not available.
Flu Activity Local Activity
METAR PFKW 250256Z AUTO 17011KT 10SM CLR M01/M02 A2998 RMK AO2 SLP151 T10061022 56005 FZRANO

More Conditions Fewer Conditions

10-Day Weather Forecast

Almanac

Astronomy

Oct. 24, 2014 Rise Set
Actual Time 9:50 AM AKDT 7:06 PM AKDT
Civil Twilight 9:05 AM AKDT 7:51 PM AKDT
Nautical Twilight 8:15 AM AKDT 8:41 PM AKDT
Astronomical Twilight 7:25 AM AKDT 9:30 PM AKDT
Moon 10:54 AM AKDT (10/24) 7:38 PM AKDT (10/24)
Length of Visible Light 10h 45m
Length of Day
9h 16m
Tomorrow will be 5m 30s shorter.
New Moon, 2% of the Moon is Illuminated
Today
New Moon
Oct 30
First Quarter
Nov 6
Full
Nov 14
Last Quarter
Nov 22
New

Today's Extremes

State Highs State Lows

Community

WunderPhotos

Upload Photos

1,764,771 photos uploaded!

Nearby

Snow Depth

Station Depth Elevation
Rocky Point 3 in 500 ft
Pargon Creek 0 in 300 ft
Mcneil Canyon 1 in 1320 ft
Port Graham 0 in 300 ft
MF Bradley River 0 in 2300 ft

Earthquake Activity

City Distance Mag. Time & Date
No recent earthquake activity has been reported nearby.
Minimum magnitude displayed is 2.5.

Coastal Water Temperatures

Place Temperature
No Stations Reporting

Nearby Weather Stations